Tebbetts, Missouri
Current Conditions -  °F | °C
As of 10:53 PM on Thursday 27 Nov 2014 (Local Time) from KJEF Reporting Station
Clear Clear  
Wind Chill: 25°   Ceiling: Unl
Heat Index: 31°   Visibility: 10mi
Dew Point: 25°   Wind: 6mph
Humidity: 79%   Direction: 110°ESE
Pressure: 30.37"   Gusts: NA
Location:  38.62°N, 91.96°W
Report Text: KJEF 280453Z AUTO 11005KT 10SM CLR M01/M04 A3037 RMK AO2 SLP279 T10061039 $
Loading
Personal Weather Stations






























Interactive Weather Map New forecast layout! Learn more

10-Day Weather Forecast

Advertisements
Track Severe Weather on mobile